createdAt,value
2019-02-19T00:00:40.075Z,1007.72
2019-02-19T00:01:40.125Z,1007.73
2019-02-19T00:02:40.179Z,1007.72
2019-02-19T00:03:40.226Z,1007.74
2019-02-19T00:04:40.276Z,1007.74
2019-02-19T00:05:40.329Z,1007.76
2019-02-19T00:06:40.379Z,1007.76
2019-02-19T00:07:40.432Z,1007.78
2019-02-19T00:08:40.481Z,1007.77
2019-02-19T00:09:40.533Z,1007.82
2019-02-19T00:10:40.584Z,1007.81
2019-02-19T00:11:40.636Z,1007.81
2019-02-19T00:12:40.686Z,1007.80
2019-02-19T00:13:40.737Z,1007.79
2019-02-19T00:14:40.786Z,1007.81
2019-02-19T00:15:40.839Z,1007.79
2019-02-19T00:16:40.889Z,1007.79
2019-02-19T00:17:40.940Z,1007.81
2019-02-19T00:18:40.991Z,1007.81
2019-02-19T00:19:41.042Z,1007.82
2019-02-19T00:20:41.092Z,1007.81
2019-02-19T00:21:41.143Z,1007.76
2019-02-19T00:22:41.193Z,1007.81
2019-02-19T00:23:41.244Z,1007.83
2019-02-19T00:24:41.312Z,1007.82
2019-02-19T00:25:41.345Z,1007.79
2019-02-19T00:26:41.395Z,1007.83
2019-02-19T00:27:41.448Z,1007.82
2019-02-19T00:28:41.497Z,1007.85
2019-02-19T00:29:41.547Z,1007.83
2019-02-19T00:30:41.599Z,1007.85
2019-02-19T00:31:41.651Z,1007.81
2019-02-19T00:32:41.699Z,1007.81
2019-02-19T00:33:41.750Z,1007.84
2019-02-19T00:34:41.802Z,1007.83
2019-02-19T00:35:41.852Z,1007.84
2019-02-19T00:36:41.901Z,1007.84
2019-02-19T00:37:41.953Z,1007.84
2019-02-19T00:38:42.004Z,1007.83
2019-02-19T00:39:42.055Z,1007.85
2019-02-19T00:40:42.104Z,1007.84
2019-02-19T00:41:42.154Z,1007.81
2019-02-19T00:42:42.206Z,1007.84
2019-02-19T00:43:42.262Z,1007.81
2019-02-19T00:44:42.307Z,1007.85
2019-02-19T00:45:42.357Z,1007.80
2019-02-19T00:46:42.409Z,1007.82
2019-02-19T00:47:42.460Z,1007.81
2019-02-19T00:48:42.509Z,1007.76
2019-02-19T00:49:42.560Z,1007.78
2019-02-19T00:50:42.611Z,1007.79
2019-02-19T00:51:42.660Z,1007.78
2019-02-19T00:52:42.712Z,1007.78
2019-02-19T00:53:42.762Z,1007.79
2019-02-19T00:54:42.813Z,1007.78
2019-02-19T00:55:42.863Z,1007.79
2019-02-19T00:56:42.913Z,1007.80
2019-02-19T00:57:42.964Z,1007.83
2019-02-19T00:58:43.016Z,1007.79
2019-02-19T00:59:43.068Z,1007.77
2019-02-19T01:00:43.115Z,1007.79
2019-02-19T01:01:43.168Z,1007.83
2019-02-19T01:02:43.219Z,1007.80
2019-02-19T01:03:43.267Z,1007.80
2019-02-19T01:04:43.318Z,1007.84
2019-02-19T01:05:43.368Z,1007.82
2019-02-19T01:06:43.422Z,1007.85
2019-02-19T01:07:43.471Z,1007.85
2019-02-19T01:08:43.519Z,1007.86
2019-02-19T01:09:43.574Z,1007.84
2019-02-19T01:10:43.621Z,1007.79
2019-02-19T01:11:43.672Z,1007.82
2019-02-19T01:12:43.728Z,1007.81
2019-02-19T01:13:43.774Z,1007.79
2019-02-19T01:14:43.824Z,1007.79
2019-02-19T01:15:43.879Z,1007.77
2019-02-19T01:16:43.924Z,1007.79
2019-02-19T01:17:43.976Z,1007.80
2019-02-19T01:18:44.029Z,1007.79
2019-02-19T01:19:44.078Z,1007.80
2019-02-19T01:20:44.136Z,1007.81
2019-02-19T01:21:44.177Z,1007.82
2019-02-19T01:22:44.229Z,1007.79
2019-02-19T01:23:44.290Z,1007.78
2019-02-19T01:24:44.330Z,1007.84
2019-02-19T01:25:44.384Z,1007.79
2019-02-19T01:26:44.431Z,1007.78
2019-02-19T01:27:44.483Z,1007.82
2019-02-19T01:28:44.531Z,1007.80
2019-02-19T01:29:44.582Z,1007.83
2019-02-19T01:30:44.633Z,1007.81
2019-02-19T01:31:44.685Z,1007.78
2019-02-19T01:32:44.735Z,1007.78
2019-02-19T01:33:44.785Z,1007.78
2019-02-19T01:34:44.837Z,1007.79
2019-02-19T01:35:44.887Z,1007.77
2019-02-19T01:36:44.937Z,1007.73
2019-02-19T01:37:44.989Z,1007.77
2019-02-19T01:38:45.038Z,1007.77
2019-02-19T01:39:45.091Z,1007.78
2019-02-19T01:40:45.140Z,1007.76
2019-02-19T01:41:45.192Z,1007.73
2019-02-19T01:42:45.241Z,1007.79
2019-02-19T01:43:45.292Z,1007.78
2019-02-19T01:44:45.343Z,1007.83
2019-02-19T01:45:45.393Z,1007.81
2019-02-19T01:46:45.445Z,1007.76
2019-02-19T01:47:45.499Z,1007.75
2019-02-19T01:48:45.551Z,1007.75
2019-02-19T01:49:45.596Z,1007.75
2019-02-19T01:50:45.647Z,1007.76
2019-02-19T01:51:45.698Z,1007.75
2019-02-19T01:52:45.747Z,1007.81
2019-02-19T01:53:45.798Z,1007.82
2019-02-19T01:54:45.850Z,1007.77
2019-02-19T01:55:45.905Z,1007.82
2019-02-19T01:56:45.949Z,1007.78
2019-02-19T01:57:46.002Z,1007.78
2019-02-19T01:58:46.051Z,1007.83
2019-02-19T01:59:46.103Z,1007.84
2019-02-19T02:00:46.153Z,1007.85
2019-02-19T02:01:46.202Z,1007.80
2019-02-19T02:02:46.253Z,1007.77
2019-02-19T02:03:46.354Z,1007.79
2019-02-19T02:04:46.353Z,1007.74
2019-02-19T02:05:46.406Z,1007.79
2019-02-19T02:06:46.468Z,1007.79
2019-02-19T02:07:46.506Z,1007.75
2019-02-19T02:08:46.559Z,1007.77
2019-02-19T02:09:46.606Z,1007.76
2019-02-19T02:10:46.658Z,1007.74
2019-02-19T02:11:46.711Z,1007.75
2019-02-19T02:12:46.758Z,1007.72
2019-02-19T02:13:46.809Z,1007.68
2019-02-19T02:14:46.859Z,1007.69
2019-02-19T02:15:46.911Z,1007.64
2019-02-19T02:16:46.960Z,1007.71
2019-02-19T02:17:47.011Z,1007.70
2019-02-19T02:18:47.062Z,1007.71
2019-02-19T02:19:47.113Z,1007.71
2019-02-19T02:20:47.162Z,1007.72
2019-02-19T02:21:47.214Z,1007.75
2019-02-19T02:22:47.265Z,1007.77
2019-02-19T02:23:47.317Z,1007.73
2019-02-19T02:24:47.366Z,1007.78
2019-02-19T02:25:48.123Z,1007.75
2019-02-19T02:26:47.468Z,1007.80
2019-02-19T02:27:47.521Z,1007.77
2019-02-19T02:28:47.570Z,1007.78
2019-02-19T02:29:47.618Z,1007.77
2019-02-19T02:30:47.669Z,1007.86
2019-02-19T02:31:47.722Z,1007.87
2019-02-19T02:32:47.772Z,1007.83
2019-02-19T02:33:47.821Z,1007.82
2019-02-19T02:34:47.873Z,1007.80
2019-02-19T02:35:47.924Z,1007.80
2019-02-19T02:36:47.973Z,1007.80
2019-02-19T02:37:48.022Z,1007.78
2019-02-19T02:38:48.074Z,1007.82
2019-02-19T02:39:48.124Z,1007.79
2019-02-19T02:40:48.174Z,1007.79
2019-02-19T02:41:48.225Z,1007.81
2019-02-19T02:42:48.276Z,1007.80
2019-02-19T02:43:48.329Z,1007.80
2019-02-19T02:44:48.377Z,1007.74
2019-02-19T02:45:53.500Z,1007.77
2019-02-19T02:46:48.478Z,1007.76
2019-02-19T02:47:48.526Z,1007.76
2019-02-19T02:48:48.591Z,1007.79
2019-02-19T02:49:48.629Z,1007.77
2019-02-19T02:50:48.677Z,1007.80
2019-02-19T02:51:48.729Z,1007.82
2019-02-19T02:52:48.780Z,1007.78
2019-02-19T02:53:48.829Z,1007.80
2019-02-19T02:54:48.881Z,1007.76
2019-02-19T02:55:48.933Z,1007.82
2019-02-19T02:56:48.982Z,1007.79
2019-02-19T02:57:49.032Z,1007.80
2019-02-19T02:58:49.082Z,1007.83
2019-02-19T02:59:49.131Z,1007.84
2019-02-19T03:00:49.186Z,1007.82
2019-02-19T03:01:49.232Z,1007.78
2019-02-19T03:02:49.283Z,1007.75
2019-02-19T03:03:49.333Z,1007.77
2019-02-19T03:04:49.382Z,1007.77
2019-02-19T03:05:49.434Z,1007.78
2019-02-19T03:06:49.484Z,1007.85
2019-02-19T03:07:49.535Z,1007.83
2019-02-19T03:08:49.583Z,1007.80
2019-02-19T03:09:49.637Z,1007.75
2019-02-19T03:10:49.687Z,1007.79
2019-02-19T03:11:49.735Z,1007.78
2019-02-19T03:12:49.785Z,1007.77
2019-02-19T03:13:49.835Z,1007.78
2019-02-19T03:14:49.888Z,1007.73
2019-02-19T03:15:49.937Z,1007.74
2019-02-19T03:16:49.989Z,1007.71
2019-02-19T03:17:50.038Z,1007.68
2019-02-19T03:18:50.087Z,1007.67
2019-02-19T03:19:50.137Z,1007.65
2019-02-19T03:20:50.189Z,1007.68
2019-02-19T03:21:50.239Z,1007.69
2019-02-19T03:22:50.287Z,1007.72
2019-02-19T03:23:50.338Z,1007.70
2019-02-19T03:24:50.387Z,1007.66
2019-02-19T03:25:50.437Z,1007.69
2019-02-19T03:26:50.497Z,1007.68
2019-02-19T03:27:50.539Z,1007.65
2019-02-19T03:28:50.596Z,1007.62
2019-02-19T03:29:50.646Z,1007.68
2019-02-19T03:30:50.691Z,1007.81
2019-02-19T03:31:50.742Z,1007.86
2019-02-19T03:32:50.794Z,1007.78
2019-02-19T03:33:50.842Z,1007.73
2019-02-19T03:34:50.891Z,1007.79
2019-02-19T03:35:50.942Z,1007.80
2019-02-19T03:36:50.994Z,1007.82
2019-02-19T03:37:51.040Z,1007.81
2019-02-19T03:38:51.093Z,1007.82
2019-02-19T03:39:51.142Z,1007.82
2019-02-19T03:40:51.193Z,1007.76
2019-02-19T03:41:51.245Z,1007.74
2019-02-19T03:42:51.293Z,1007.77
2019-02-19T03:43:51.345Z,1007.73
2019-02-19T03:44:51.394Z,1007.67
2019-02-19T03:45:51.444Z,1007.70
2019-02-19T03:46:51.496Z,1007.70
2019-02-19T03:47:51.546Z,1007.79
2019-02-19T03:48:51.595Z,1007.83
2019-02-19T03:49:51.652Z,1007.84
2019-02-19T03:50:51.697Z,1007.85
2019-02-19T03:51:51.749Z,1007.83
2019-02-19T03:52:51.796Z,1007.82
2019-02-19T03:53:51.848Z,1007.80
2019-02-19T03:54:51.905Z,1007.84
2019-02-19T03:55:51.949Z,1007.83
2019-02-19T03:56:51.999Z,1007.82
2019-02-19T03:57:52.050Z,1007.83
2019-02-19T03:58:52.104Z,1007.86
2019-02-19T03:59:52.153Z,1007.84
2019-02-19T04:00:52.201Z,1007.88
2019-02-19T04:01:52.250Z,1007.92
2019-02-19T04:02:52.302Z,1007.95
2019-02-19T04:03:52.360Z,1007.93
2019-02-19T04:04:52.402Z,1007.96
2019-02-19T04:05:52.453Z,1007.99
2019-02-19T04:06:52.504Z,1008.03
2019-02-19T04:07:52.555Z,1008.05
2019-02-19T04:08:52.605Z,1008.06
2019-02-19T04:09:52.655Z,1008.06
2019-02-19T04:10:52.705Z,1008.06
2019-02-19T04:11:52.757Z,1008.09
2019-02-19T04:12:52.807Z,1008.09
2019-02-19T04:13:52.858Z,1008.04
2019-02-19T04:14:52.908Z,1008.06
2019-02-19T04:15:52.959Z,1008.08
2019-02-19T04:16:53.008Z,1008.07
2019-02-19T04:17:53.059Z,1008.13
2019-02-19T04:18:53.111Z,1008.10
2019-02-19T04:19:53.163Z,1008.13
2019-02-19T04:20:53.210Z,1008.14
2019-02-19T04:21:53.266Z,1008.15
2019-02-19T04:22:53.316Z,1008.17
2019-02-19T04:23:53.363Z,1008.20
2019-02-19T04:24:53.413Z,1008.18
2019-02-19T04:25:53.463Z,1008.19
2019-02-19T04:26:53.517Z,1008.21
2019-02-19T04:27:53.565Z,1008.17
2019-02-19T04:28:53.618Z,1008.11
2019-02-19T04:29:53.665Z,1008.09
2019-02-19T04:30:53.718Z,1008.08
2019-02-19T04:31:53.770Z,1008.06
2019-02-19T04:32:53.820Z,1008.04
2019-02-19T04:33:53.868Z,1008.07
2019-02-19T04:34:53.919Z,1008.11
2019-02-19T04:35:53.971Z,1008.11
2019-02-19T04:36:54.019Z,1008.13
2019-02-19T04:37:54.072Z,1008.16
2019-02-19T04:38:54.123Z,1008.14
2019-02-19T04:39:54.175Z,1008.11
2019-02-19T04:40:54.227Z,1008.14
2019-02-19T04:41:54.273Z,1008.10
2019-02-19T04:42:54.324Z,1008.14
2019-02-19T04:43:54.376Z,1008.12
2019-02-19T04:44:54.425Z,1008.11
2019-02-19T04:45:54.477Z,1008.09
2019-02-19T04:46:54.529Z,1008.14
2019-02-19T04:47:54.613Z,1008.13
2019-02-19T04:48:54.651Z,1008.17
2019-02-19T04:49:54.719Z,1008.16
2019-02-19T04:50:54.757Z,1008.18
2019-02-19T04:51:54.810Z,1008.15
2019-02-19T04:52:54.924Z,1008.12
2019-02-19T04:53:55.238Z,1008.20
2019-02-19T04:54:54.943Z,1008.19
2019-02-19T04:55:54.986Z,1008.17
2019-02-19T04:56:55.035Z,1008.23
2019-02-19T04:57:55.086Z,1008.28
2019-02-19T04:58:55.141Z,1008.22
2019-02-19T04:59:55.208Z,1008.26
2019-02-19T05:00:55.239Z,1008.29
2019-02-19T05:01:55.323Z,1008.27
2019-02-19T05:02:55.339Z,1008.25
2019-02-19T05:03:55.390Z,1008.23
2019-02-19T05:04:55.447Z,1008.23
2019-02-19T05:05:55.493Z,1008.26
2019-02-19T05:06:55.543Z,1008.27
2019-02-19T05:07:55.594Z,1008.31
2019-02-19T05:08:55.644Z,1008.27
2019-02-19T05:09:55.696Z,1008.29
2019-02-19T05:10:55.747Z,1008.31
2019-02-19T05:11:55.796Z,1008.28
2019-02-19T05:12:55.848Z,1008.32
2019-02-19T05:13:55.898Z,1008.34
2019-02-19T05:14:55.951Z,1008.34
2019-02-19T05:15:56.005Z,1008.30
2019-02-19T05:16:56.050Z,1008.31
2019-02-19T05:17:56.101Z,1008.30
2019-02-19T05:18:56.160Z,1008.34
2019-02-19T05:19:56.205Z,1008.35
2019-02-19T05:20:56.255Z,1008.34
2019-02-19T05:21:56.306Z,1008.38
2019-02-19T05:22:56.362Z,1008.38
2019-02-19T05:23:56.409Z,1008.38
2019-02-19T05:24:56.458Z,1008.35
2019-02-19T05:25:56.511Z,1008.36
2019-02-19T05:26:56.894Z,1008.40
2019-02-19T05:27:56.614Z,1008.41
2019-02-19T05:28:56.661Z,1008.45
2019-02-19T05:29:56.714Z,1008.42
2019-02-19T05:30:56.764Z,1008.43
2019-02-19T05:31:56.816Z,1008.40
2019-02-19T05:32:56.865Z,1008.43
2019-02-19T05:33:56.920Z,1008.47
2019-02-19T05:34:56.969Z,1008.52
2019-02-19T05:35:57.021Z,1008.48
2019-02-19T05:36:57.070Z,1008.50
2019-02-19T05:37:57.131Z,1008.45
2019-02-19T05:38:57.174Z,1008.49
2019-02-19T05:39:57.225Z,1008.52
2019-02-19T05:40:57.274Z,1008.51
2019-02-19T05:41:57.326Z,1008.55
2019-02-19T05:42:57.377Z,1008.60
2019-02-19T05:43:57.429Z,1008.55
2019-02-19T05:44:57.479Z,1008.58
2019-02-19T05:45:57.531Z,1008.57
2019-02-19T05:46:57.583Z,1008.54
2019-02-19T05:47:57.635Z,1008.52
2019-02-19T05:48:57.688Z,1008.50
2019-02-19T05:49:57.737Z,1008.51
2019-02-19T05:50:57.789Z,1008.53
2019-02-19T05:51:57.838Z,1008.54
2019-02-19T05:52:57.888Z,1008.60
2019-02-19T05:53:57.941Z,1008.60
2019-02-19T05:54:57.991Z,1008.60
2019-02-19T05:55:58.044Z,1008.62
2019-02-19T05:56:58.098Z,1008.62
2019-02-19T05:57:58.155Z,1008.63
2019-02-19T05:58:58.197Z,1008.70
2019-02-19T05:59:58.248Z,1008.68
2019-02-19T06:00:58.299Z,1008.63
2019-02-19T06:01:58.349Z,1008.59
2019-02-19T06:02:58.401Z,1008.64
2019-02-19T06:03:58.453Z,1008.62
2019-02-19T06:04:58.501Z,1008.63
2019-02-19T06:05:58.557Z,1008.64
2019-02-19T06:06:58.649Z,1008.69
2019-02-19T06:07:58.965Z,1008.67
2019-02-19T06:08:58.717Z,1008.69
2019-02-19T06:09:59.095Z,1008.66
2019-02-19T06:10:58.837Z,1008.68
2019-02-19T06:11:58.891Z,1008.69
2019-02-19T06:12:58.925Z,1008.71
2019-02-19T06:13:59.001Z,1008.77
2019-02-19T06:14:59.331Z,1008.78
2019-02-19T06:15:59.093Z,1008.78
2019-02-19T06:16:59.172Z,1008.80
2019-02-19T06:17:59.173Z,1008.81
2019-02-19T06:18:59.271Z,1008.83
2019-02-19T06:19:59.713Z,1008.83
2019-02-19T06:20:59.365Z,1008.89
2019-02-19T06:21:59.398Z,1008.90
2019-02-19T06:22:59.510Z,1008.89
2019-02-19T06:23:59.476Z,1008.91
2019-02-19T06:24:59.528Z,1008.95
2019-02-19T06:25:59.581Z,1008.98
2019-02-19T06:26:59.631Z,1008.99
2019-02-19T06:27:59.681Z,1008.98
2019-02-19T06:28:59.732Z,1009.04
2019-02-19T06:29:59.787Z,1009.00
2019-02-19T06:30:59.839Z,1009.03
2019-02-19T06:31:59.885Z,1009.03
2019-02-19T06:32:59.946Z,1008.99
2019-02-19T06:33:59.990Z,1009.02
2019-02-19T06:35:00.039Z,1009.04
2019-02-19T06:36:00.094Z,1009.07
2019-02-19T06:37:00.147Z,1009.09
2019-02-19T06:38:00.192Z,1009.10
2019-02-19T06:39:00.244Z,1009.12
2019-02-19T06:40:00.330Z,1009.17
2019-02-19T06:41:01.967Z,1009.14
2019-02-19T06:42:00.395Z,1009.17
2019-02-19T06:43:00.450Z,1009.20
2019-02-19T06:44:00.498Z,1009.18
2019-02-19T06:45:00.548Z,1009.19
2019-02-19T06:46:00.599Z,1009.20
2019-02-19T06:47:06.647Z,1009.26
2019-02-19T06:48:00.702Z,1009.27
2019-02-19T06:49:00.754Z,1009.32
2019-02-19T06:50:00.807Z,1009.35
2019-02-19T06:51:00.856Z,1009.34
2019-02-19T06:52:00.907Z,1009.36
2019-02-19T06:53:00.957Z,1009.37
2019-02-19T06:54:01.009Z,1009.42
2019-02-19T06:55:01.078Z,1009.41
2019-02-19T06:56:01.110Z,1009.39
2019-02-19T06:57:01.160Z,1009.43
2019-02-19T06:58:01.212Z,1009.48
2019-02-19T06:59:01.296Z,1009.46
2019-02-19T07:00:01.315Z,1009.45
2019-02-19T07:01:01.371Z,1009.46
2019-02-19T07:02:01.420Z,1009.49
2019-02-19T07:03:01.468Z,1009.50
2019-02-19T07:04:01.519Z,1009.50
2019-02-19T07:05:01.925Z,1009.56
2019-02-19T07:06:01.624Z,1009.54
2019-02-19T07:07:01.672Z,1009.54
2019-02-19T07:08:01.727Z,1009.61
2019-02-19T07:09:01.774Z,1009.66
2019-02-19T07:10:01.828Z,1009.64
2019-02-19T07:11:01.883Z,1009.63
2019-02-19T07:12:01.927Z,1009.64
2019-02-19T07:13:01.979Z,1009.61
2019-02-19T07:14:02.029Z,1009.61
2019-02-19T07:15:02.083Z,1009.56
2019-02-19T07:16:02.133Z,1009.60
2019-02-19T07:17:02.186Z,1009.58
2019-02-19T07:18:02.232Z,1009.58
2019-02-19T07:19:02.314Z,1009.60
2019-02-19T07:20:02.336Z,1009.58
2019-02-19T07:21:02.389Z,1009.56
2019-02-19T07:22:02.438Z,1009.57
2019-02-19T07:23:02.492Z,1009.55
2019-02-19T07:24:04.686Z,1009.55
2019-02-19T07:25:02.590Z,1009.58
2019-02-19T07:26:02.642Z,1009.55
2019-02-19T07:27:02.693Z,1009.53
2019-02-19T07:28:02.745Z,1009.57
2019-02-19T07:29:02.795Z,1009.54
2019-02-19T07:30:02.846Z,1009.56
2019-02-19T07:31:02.898Z,1009.56
2019-02-19T07:32:02.961Z,1009.57
2019-02-19T07:33:03.001Z,1009.60
2019-02-19T07:34:03.054Z,1009.59
2019-02-19T07:35:03.449Z,1009.58
2019-02-19T07:36:03.152Z,1009.58
2019-02-19T07:37:03.202Z,1009.62
2019-02-19T07:38:03.578Z,1009.62
2019-02-19T07:39:03.308Z,1009.69
2019-02-19T07:40:03.359Z,1009.65
2019-02-19T07:41:03.416Z,1009.68
2019-02-19T07:42:03.460Z,1009.69
2019-02-19T07:43:03.841Z,1009.75
2019-02-19T07:44:03.564Z,1009.76
2019-02-19T07:45:04.056Z,1009.78
2019-02-19T07:46:04.074Z,1009.78
2019-02-19T07:47:03.715Z,1009.85
2019-02-19T07:48:03.766Z,1009.84
2019-02-19T07:49:03.818Z,1009.90
2019-02-19T07:50:03.872Z,1009.90
2019-02-19T07:51:03.920Z,1009.90
2019-02-19T07:52:03.972Z,1009.94
2019-02-19T07:53:04.022Z,1010.00
2019-02-19T07:54:04.073Z,1010.02
2019-02-19T07:55:04.125Z,1010.03
2019-02-19T07:56:04.176Z,1010.02
2019-02-19T07:57:04.234Z,1010.04
2019-02-19T07:58:04.313Z,1010.05
2019-02-19T07:59:04.341Z,1010.04
2019-02-19T08:00:04.387Z,1010.10
2019-02-19T08:01:04.447Z,1010.17
2019-02-19T08:02:04.487Z,1010.20
2019-02-19T08:03:05.050Z,1010.19
2019-02-19T08:04:04.587Z,1010.20
2019-02-19T08:05:04.640Z,1010.16
2019-02-19T08:06:04.689Z,1010.20
2019-02-19T08:07:04.740Z,1010.18
2019-02-19T08:08:04.794Z,1010.18
2019-02-19T08:09:04.843Z,1010.20
2019-02-19T08:10:04.896Z,1010.21
2019-02-19T08:11:04.970Z,1010.22
2019-02-19T08:12:04.998Z,1010.23
2019-02-19T08:13:05.053Z,1010.20
2019-02-19T08:14:05.107Z,1010.19
2019-02-19T08:15:05.153Z,1010.17
2019-02-19T08:16:05.204Z,1010.22
2019-02-19T08:17:05.257Z,1010.22
2019-02-19T08:18:05.313Z,1010.20
2019-02-19T08:19:05.360Z,1010.25
2019-02-19T08:20:05.411Z,1010.28
2019-02-19T08:21:05.465Z,1010.32
2019-02-19T08:22:05.513Z,1010.33
2019-02-19T08:23:05.567Z,1010.36
2019-02-19T08:24:05.618Z,1010.34
2019-02-19T08:25:05.669Z,1010.35
2019-02-19T08:26:05.727Z,1010.34
2019-02-19T08:27:05.773Z,1010.38
2019-02-19T08:28:05.823Z,1010.36
2019-02-19T08:29:13.477Z,1010.42
2019-02-19T08:30:05.927Z,1010.38
2019-02-19T08:31:05.988Z,1010.38
2019-02-19T08:32:06.032Z,1010.39
2019-02-19T08:33:06.083Z,1010.39
2019-02-19T08:34:06.147Z,1010.39
2019-02-19T08:35:06.188Z,1010.40
2019-02-19T08:36:06.238Z,1010.37
2019-02-19T08:37:06.291Z,1010.38
2019-02-19T08:38:06.346Z,1010.42
2019-02-19T08:39:06.395Z,1010.47
2019-02-19T08:40:06.449Z,1010.46
2019-02-19T08:41:07.205Z,1010.38
2019-02-19T08:42:07.131Z,1010.37
2019-02-19T08:43:06.605Z,1010.38
2019-02-19T08:44:08.435Z,1010.43
2019-02-19T08:45:06.710Z,1010.46
2019-02-19T08:46:06.760Z,1010.47
2019-02-19T08:47:06.817Z,1010.45
2019-02-19T08:48:06.867Z,1010.48
2019-02-19T08:49:06.919Z,1010.47
2019-02-19T08:50:06.971Z,1010.49
2019-02-19T08:51:07.040Z,1010.52
2019-02-19T08:52:07.078Z,1010.55
2019-02-19T08:53:07.128Z,1010.57
2019-02-19T08:54:07.181Z,1010.57
2019-02-19T08:55:07.803Z,1010.56
2019-02-19T08:56:07.290Z,1010.58
2019-02-19T08:57:07.340Z,1010.56
2019-02-19T08:58:07.396Z,1010.57
2019-02-19T08:59:07.447Z,1010.59
2019-02-19T09:00:07.500Z,1010.62
2019-02-19T09:01:07.551Z,1010.58
2019-02-19T09:02:07.604Z,1010.59
2019-02-19T09:03:07.667Z,1010.60
2019-02-19T09:04:07.712Z,1010.59
2019-02-19T09:05:08.074Z,1010.57
2019-02-19T09:06:07.825Z,1010.61
2019-02-19T09:07:07.870Z,1010.65
2019-02-19T09:08:07.923Z,1010.67
2019-02-19T09:09:07.976Z,1010.65
2019-02-19T09:10:08.030Z,1010.64
2019-02-19T09:11:08.101Z,1010.62
2019-02-19T09:12:08.140Z,1010.65
2019-02-19T09:13:08.193Z,1010.64
2019-02-19T09:14:08.242Z,1010.67
2019-02-19T09:15:08.676Z,1010.67
2019-02-19T09:16:08.350Z,1010.70
2019-02-19T09:17:08.402Z,1010.68
2019-02-19T09:18:08.456Z,1010.74
2019-02-19T09:19:08.509Z,1010.75
2019-02-19T09:20:08.563Z,1010.75
2019-02-19T09:21:08.616Z,1010.74
2019-02-19T09:22:08.670Z,1010.75
2019-02-19T09:23:08.728Z,1010.80
2019-02-19T09:24:09.772Z,1010.80
2019-02-19T09:25:08.833Z,1010.81
2019-02-19T09:26:08.885Z,1010.83
2019-02-19T09:27:08.937Z,1010.84
2019-02-19T09:28:08.993Z,1010.89
2019-02-19T09:29:09.046Z,1010.88
2019-02-19T09:30:09.099Z,1010.92
2019-02-19T09:31:09.154Z,1010.89
2019-02-19T09:32:09.209Z,1010.92
2019-02-19T09:33:09.262Z,1010.91
2019-02-19T09:34:09.317Z,1010.96
2019-02-19T09:35:09.392Z,1010.93
2019-02-19T09:36:09.426Z,1010.93
2019-02-19T09:37:09.478Z,1010.91
2019-02-19T09:38:09.533Z,1010.91
2019-02-19T09:39:09.588Z,1010.89
2019-02-19T09:40:09.642Z,1010.94
2019-02-19T09:41:09.696Z,1010.92
2019-02-19T09:42:09.751Z,1010.96
2019-02-19T09:43:09.806Z,1010.97
2019-02-19T09:44:09.859Z,1010.96
2019-02-19T09:45:09.914Z,1010.95
2019-02-19T09:46:09.970Z,1010.95
2019-02-19T09:47:10.060Z,1010.94
2019-02-19T09:48:10.078Z,1010.97
2019-02-19T09:49:10.132Z,1010.99
2019-02-19T09:50:10.193Z,1011.04
2019-02-19T09:51:10.243Z,1011.00
2019-02-19T09:52:10.299Z,1011.00
2019-02-19T09:53:10.352Z,1011.01
2019-02-19T09:54:10.406Z,1010.99
2019-02-19T09:55:10.460Z,1011.03
2019-02-19T09:56:10.515Z,1011.01
2019-02-19T09:57:10.578Z,1011.04
2019-02-19T09:58:10.626Z,1011.00
2019-02-19T09:59:10.680Z,1011.00
2019-02-19T10:00:10.737Z,1011.02
2019-02-19T10:01:10.789Z,1011.01
2019-02-19T10:02:10.846Z,1011.04
2019-02-19T10:03:10.899Z,1011.06
2019-02-19T10:04:10.954Z,1011.11
2019-02-19T10:05:11.009Z,1011.12
2019-02-19T10:06:11.064Z,1011.05
2019-02-19T10:07:11.119Z,1011.08
2019-02-19T10:08:11.174Z,1011.12
2019-02-19T10:09:11.229Z,1011.08
2019-02-19T10:10:11.284Z,1011.05
2019-02-19T10:11:11.339Z,1011.10
2019-02-19T10:12:11.397Z,1011.09
2019-02-19T10:13:11.451Z,1011.08
2019-02-19T10:14:11.503Z,1011.05
2019-02-19T10:15:11.560Z,1011.06
2019-02-19T10:16:11.616Z,1011.07
2019-02-19T10:17:11.669Z,1011.08
2019-02-19T10:18:12.035Z,1011.12
2019-02-19T10:19:11.779Z,1011.11
2019-02-19T10:20:13.405Z,1011.18
2019-02-19T10:21:11.891Z,1011.21
2019-02-19T10:22:11.965Z,1011.22
2019-02-19T10:23:12.000Z,1011.24
2019-02-19T10:24:12.056Z,1011.27
2019-02-19T10:25:12.111Z,1011.20
2019-02-19T10:26:12.166Z,1011.18
2019-02-19T10:27:12.223Z,1011.20
2019-02-19T10:28:12.278Z,1011.19
2019-02-19T10:29:12.332Z,1011.19
2019-02-19T10:30:12.409Z,1011.22
2019-02-19T10:31:12.445Z,1011.15
2019-02-19T10:32:12.506Z,1011.18
2019-02-19T10:33:12.555Z,1011.15
2019-02-19T10:34:12.612Z,1011.17
2019-02-19T10:35:12.666Z,1011.17
2019-02-19T10:36:12.722Z,1011.14
2019-02-19T10:37:12.777Z,1011.18
2019-02-19T10:38:12.834Z,1011.21
2019-02-19T10:39:12.889Z,1011.20
2019-02-19T10:40:12.945Z,1011.20
2019-02-19T10:41:13.595Z,1011.21
2019-02-19T10:42:13.057Z,1011.22
2019-02-19T10:43:13.111Z,1011.19
2019-02-19T10:44:13.166Z,1011.27
2019-02-19T10:45:13.221Z,1011.28
2019-02-19T10:46:13.276Z,1011.25
2019-02-19T10:47:13.332Z,1011.25
2019-02-19T10:48:19.074Z,1011.24
2019-02-19T10:49:13.443Z,1011.27
2019-02-19T10:50:13.499Z,1011.21
2019-02-19T10:51:13.554Z,1011.25
2019-02-19T10:52:13.610Z,1011.24
2019-02-19T10:53:13.665Z,1011.25
2019-02-19T10:54:13.721Z,1011.25
2019-02-19T10:55:13.778Z,1011.26
2019-02-19T10:56:13.831Z,1011.22
2019-02-19T10:57:13.888Z,1011.19
2019-02-19T10:58:22.650Z,1011.16
2019-02-19T10:59:14.001Z,1011.17
2019-02-19T11:00:14.056Z,1011.17
2019-02-19T11:01:14.107Z,1011.19
2019-02-19T11:02:14.162Z,1011.15
2019-02-19T11:03:14.218Z,1011.16
2019-02-19T11:04:14.275Z,1011.14
2019-02-19T11:05:14.329Z,1011.14
2019-02-19T11:06:14.385Z,1011.16
2019-02-19T11:07:14.439Z,1011.12
2019-02-19T11:08:14.496Z,1011.13
2019-02-19T11:09:14.550Z,1011.10
2019-02-19T11:10:14.607Z,1011.06
2019-02-19T11:11:14.661Z,1011.06
2019-02-19T11:12:14.716Z,1011.06
2019-02-19T11:13:14.770Z,1011.07
2019-02-19T11:14:14.827Z,1011.05
2019-02-19T11:15:14.883Z,1011.03
2019-02-19T11:16:14.940Z,1011.08
2019-02-19T11:17:14.994Z,1011.06
2019-02-19T11:18:15.048Z,1011.06
2019-02-19T11:19:15.129Z,1011.08
2019-02-19T11:20:15.161Z,1011.08
2019-02-19T11:21:19.732Z,1011.06
2019-02-19T11:22:15.272Z,1011.06
2019-02-19T11:23:15.939Z,1011.01
2019-02-19T11:24:15.383Z,1011.01
2019-02-19T11:25:15.444Z,1011.00
2019-02-19T11:26:15.494Z,1010.96
2019-02-19T11:27:16.735Z,1010.98
2019-02-19T11:28:15.610Z,1011.02
2019-02-19T11:29:15.664Z,1010.96
2019-02-19T11:30:15.721Z,1010.96
2019-02-19T11:31:15.777Z,1011.00
2019-02-19T11:32:15.833Z,1011.03
2019-02-19T11:33:15.887Z,1011.18
2019-02-19T11:34:15.943Z,1011.49
2019-02-19T11:35:16.001Z,1011.47
2019-02-19T11:36:16.805Z,1011.69
2019-02-19T11:37:16.113Z,1011.64
2019-02-19T11:38:16.189Z,1010.93
2019-02-19T11:39:16.228Z,1011.64
2019-02-19T11:40:16.285Z,1011.03
2019-02-19T11:41:16.342Z,1011.64
2019-02-19T11:42:16.400Z,1010.80
2019-02-19T11:43:16.456Z,1010.92
2019-02-19T11:44:16.512Z,1010.97
2019-02-19T11:45:16.569Z,1010.97
2019-02-19T11:46:16.624Z,1011.04
2019-02-19T11:47:16.686Z,1011.01
2019-02-19T11:48:16.741Z,1011.30
2019-02-19T11:49:16.807Z,1011.78
2019-02-19T11:50:16.852Z,1011.73
2019-02-19T11:51:16.910Z,1011.67
2019-02-19T11:52:16.968Z,1011.54
2019-02-19T11:53:17.024Z,1011.39
2019-02-19T11:54:17.082Z,1011.60
2019-02-19T11:55:17.143Z,1011.12
2019-02-19T11:56:17.196Z,1010.86
2019-02-19T11:57:17.255Z,1010.96
2019-02-19T11:58:17.982Z,1011.55
2019-02-19T11:59:17.369Z,1011.58
2019-02-19T12:00:17.432Z,1010.73
2019-02-19T12:01:17.484Z,1010.78
2019-02-19T12:02:17.542Z,1010.90
2019-02-19T12:03:17.600Z,1010.66
2019-02-19T12:04:17.657Z,1010.74
2019-02-19T12:05:17.715Z,1010.84
2019-02-19T12:06:17.774Z,1011.13